Time;durP1;ratioP1;P1;durP2;ratioP2;P2;SDS_P1;SDS_P2;PMS_P1;PMS_P2;Temp;Humidity;BMP_temperature;BMP_pressure;BME280_temperature;BME280_humidity;BME280_pressure;Samples;Min_cycle;Max_cycle;Signal;HPM_P1;HPM_P2
2022/02/23 00:00:00;;;;;;;12.73;3.05;;;;;;;6.61;100.00;101679.81;5088344;28;20054;-74
2022/02/23 00:02:26;;;;;;;11.20;3.47;;;;;;;6.57;100.00;101675.00;5101920;28;20482;-74
2022/02/23 00:04:51;;;;;;;16.38;3.70;;;;;;;6.52;100.00;101674.88;5119658;27;20118;-74
2022/02/23 00:07:17;;;;;;;13.00;3.30;;;;;;;6.44;100.00;101670.56;5080912;28;20067;-74
2022/02/23 00:09:43;;;;;;;12.15;3.55;;;;;;;6.40;100.00;101677.63;5080345;28;20032;-74
2022/02/23 00:12:08;;;;;;;12.93;3.40;;;;;;;6.36;100.00;101681.94;5099963;28;20059;-74
2022/02/23 00:14:34;;;;;;;17.10;3.83;;;;;;;6.32;100.00;101687.09;5086138;28;20032;-74
2022/02/23 00:16:59;;;;;;;16.42;4.60;;;;;;;6.26;100.00;101682.50;5098032;28;20031;-75
2022/02/23 00:19:25;;;;;;;13.52;4.28;;;;;;;6.21;100.00;101685.13;5102363;28;20031;-74
2022/02/23 00:21:50;;;;;;;16.77;4.15;;;;;;;6.17;100.00;101681.19;5086851;28;20036;-75
2022/02/23 00:24:16;;;;;;;14.57;4.15;;;;;;;6.12;100.00;101689.31;5110202;28;20502;-74
2022/02/23 00:26:41;;;;;;;16.75;4.78;;;;;;;6.09;100.00;101676.00;5115252;27;20035;-74
2022/02/23 00:29:08;;;;;;;16.83;4.97;;;;;;;6.04;100.00;101683.09;5090464;28;20081;-74
2022/02/23 00:31:33;;;;;;;14.63;4.75;;;;;;;6.01;100.00;101688.22;5077673;28;20033;-74
2022/02/23 00:33:59;;;;;;;19.88;4.45;;;;;;;5.96;100.00;101686.19;5074782;28;20040;-74
2022/02/23 00:36:24;;;;;;;18.75;4.85;;;;;;;5.94;100.00;101695.75;5080593;28;20094;-74
2022/02/23 00:38:50;;;;;;;16.52;4.45;;;;;;;5.90;100.00;101691.75;5097081;28;20081;-75
2022/02/23 00:41:15;;;;;;;14.43;4.72;;;;;;;5.85;100.00;101681.44;5061812;28;20024;-75
2022/02/23 00:43:41;;;;;;;12.73;4.15;;;;;;;5.79;100.00;101683.22;5096914;28;20401;-75
2022/02/23 00:46:06;;;;;;;11.60;4.43;;;;;;;5.77;100.00;101692.78;5093414;28;20078;-75
2022/02/23 00:48:31;;;;;;;20.10;5.18;;;;;;;5.73;100.00;101689.63;5071727;28;20036;-75
2022/02/23 00:50:57;;;;;;;18.20;4.47;;;;;;;5.70;100.00;101684.59;5075417;28;20041;-75
2022/02/23 00:53:22;;;;;;;17.73;4.10;;;;;;;5.67;100.00;101679.53;5101837;28;20036;-75
2022/02/23 00:55:48;;;;;;;15.65;4.30;;;;;;;5.64;100.00;101685.53;5075078;28;20032;-75
2022/02/23 00:58:13;;;;;;;14.10;3.78;;;;;;;5.61;100.00;101686.00;5096712;28;20035;-75
2022/02/23 01:00:39;;;;;;;16.02;3.95;;;;;;;5.58;100.00;101690.03;5078169;28;20035;-75
2022/02/23 01:03:04;;;;;;;15.30;3.80;;;;;;;5.55;100.00;101684.16;5077527;28;20032;-75
2022/02/23 01:05:30;;;;;;;20.05;3.88;;;;;;;5.54;100.00;101687.97;5096595;28;20050;-74
2022/02/23 01:07:55;;;;;;;15.85;3.88;;;;;;;5.50;100.00;101676.59;5076140;28;20044;-75
2022/02/23 01:10:21;;;;;;;16.58;4.22;;;;;;;5.48;100.00;101678.72;5046388;28;20031;-74
2022/02/23 01:12:47;;;;;;;15.32;4.00;;;;;;;5.47;100.00;101679.81;5076563;28;20020;-75
2022/02/23 01:15:13;;;;;;;13.48;3.60;;;;;;;5.47;100.00;101690.00;5096988;28;20032;-74
2022/02/23 01:17:39;;;;;;;14.10;4.07;;;;;;;5.47;100.00;101684.47;5079424;28;20491;-75
2022/02/23 01:20:05;;;;;;;12.05;3.55;;;;;;;5.43;100.00;101691.50;5074990;28;20082;-74
2022/02/23 01:22:30;;;;;;;13.23;3.42;;;;;;;5.43;100.00;101677.75;5080258;28;20480;-74
2022/02/23 01:24:56;;;;;;;16.90;4.30;;;;;;;5.39;100.00;101680.13;5078311;28;20112;-75
2022/02/23 01:27:21;;;;;;;17.63;4.30;;;;;;;5.39;100.00;101666.34;5070630;28;20038;-74
2022/02/23 01:29:47;;;;;;;12.70;3.60;;;;;;;5.36;100.00;101672.31;5101408;28;20377;-75
2022/02/23 01:32:12;;;;;;;14.60;4.15;;;;;;;5.34;100.00;101667.03;5105085;28;20024;-75
2022/02/23 01:34:40;;;;;;;13.75;3.85;;;;;;;5.30;100.00;101665.81;5090963;28;20039;-74
2022/02/23 01:37:06;;;;;;;15.80;3.72;;;;;;;5.26;100.00;101669.25;5071135;28;20122;-74
2022/02/23 01:39:31;;;;;;;16.65;4.00;;;;;;;5.21;100.00;101666.34;5110905;28;20031;-75
2022/02/23 01:41:57;;;;;;;15.25;3.97;;;;;;;5.22;100.00;101668.88;5087394;28;20027;-74
2022/02/23 01:44:22;;;;;;;17.50;4.38;;;;;;;5.17;100.00;101662.38;5089236;28;20028;-75
2022/02/23 01:46:48;;;;;;;13.45;3.78;;;;;;;5.13;100.00;101657.34;5092123;28;20019;-74
2022/02/23 01:49:13;;;;;;;11.05;3.88;;;;;;;5.11;100.00;101658.63;5081770;28;20078;-74
2022/02/23 01:51:39;;;;;;;10.95;3.53;;;;;;;5.07;100.00;101662.91;5086780;28;20400;-74
2022/02/23 01:54:04;;;;;;;13.32;3.83;;;;;;;5.03;100.00;101672.72;5081841;28;20032;-74
2022/02/23 01:56:30;;;;;;;9.85;3.53;;;;;;;4.97;100.00;101673.63;5082153;28;20391;-74
2022/02/23 01:58:55;;;;;;;12.02;3.13;;;;;;;4.92;100.00;101668.81;5103350;28;20035;-75
2022/02/23 02:01:21;;;;;;;11.85;3.30;;;;;;;4.90;100.00;101659.91;5095470;28;20103;-74
2022/02/23 02:03:47;;;;;;;12.23;3.85;;;;;;;4.86;100.00;101664.22;5079893;28;20032;-74
2022/02/23 02:06:12;;;;;;;10.73;2.70;;;;;;;4.83;100.00;101656.41;5107987;28;20043;-74
2022/02/23 02:08:37;;;;;;;14.18;3.60;;;;;;;4.77;100.00;101657.34;5069650;28;20032;-74
2022/02/23 02:11:03;;;;;;;13.00;3.30;;;;;;;4.76;100.00;101666.63;5113028;28;20039;-74
2022/02/23 02:13:29;;;;;;;8.88;2.55;;;;;;;4.72;100.00;101666.25;5093139;28;20028;-74
2022/02/23 02:15:54;;;;;;;16.23;3.88;;;;;;;4.69;100.00;101662.03;5104766;28;20039;-74
2022/02/23 02:18:19;;;;;;;11.02;3.35;;;;;;;4.64;100.00;101664.63;5113857;28;20472;-74
2022/02/23 02:20:45;;;;;;;11.60;3.40;;;;;;;4.57;100.00;101666.63;5087410;28;20491;-74
2022/02/23 02:23:10;;;;;;;12.02;3.63;;;;;;;4.55;100.00;101649.50;5107164;28;20024;-75
2022/02/23 02:25:36;;;;;;;12.00;3.58;;;;;;;4.56;100.00;101651.16;5106051;28;20028;-75
2022/02/23 02:28:04;;;;;;;12.90;3.20;;;;;;;4.52;100.00;101652.69;5101259;28;20023;-74
2022/02/23 02:30:30;;;;;;;12.88;3.10;;;;;;;4.51;100.00;101658.41;5092530;28;20032;-74
2022/02/23 02:32:55;;;;;;;15.10;3.30;;;;;;;4.46;100.00;101657.19;5104182;28;20121;-74
2022/02/23 02:35:21;;;;;;;15.18;3.72;;;;;;;4.46;100.00;101648.09;5074841;28;20032;-74
2022/02/23 02:37:46;;;;;;;9.68;3.08;;;;;;;4.41;100.00;101643.28;5083614;28;20039;-75
2022/02/23 02:40:12;;;;;;;12.73;2.92;;;;;;;4.40;100.00;101647.09;5104124;28;20074;-74
2022/02/23 02:42:37;;;;;;;15.27;3.40;;;;;;;4.38;100.00;101654.72;5108503;28;20066;-74
2022/02/23 02:45:03;;;;;;;12.55;2.92;;;;;;;4.34;100.00;101660.88;5078871;28;20495;-74
2022/02/23 02:47:29;;;;;;;13.98;3.55;;;;;;;4.36;100.00;101664.25;5081443;28;20556;-74
2022/02/23 02:49:55;;;;;;;8.30;2.85;;;;;;;4.35;100.00;101651.59;5096795;28;20031;-74
2022/02/23 02:52:20;;;;;;;14.32;3.70;;;;;;;4.30;100.00;101651.41;5096360;28;20055;-74
2022/02/23 02:54:46;;;;;;;12.77;3.33;;;;;;;4.29;100.00;101649.72;5075209;28;20085;-74
2022/02/23 02:57:11;;;;;;;14.82;3.28;;;;;;;4.24;100.00;101647.66;5043519;28;20037;-74
2022/02/23 02:59:37;;;;;;;14.60;3.53;;;;;;;4.24;100.00;101648.50;5110612;28;20027;-74
2022/02/23 03:02:03;;;;;;;9.95;3.20;;;;;;;4.23;100.00;101646.81;5102899;28;20053;-75
2022/02/23 03:04:28;;;;;;;12.82;3.65;;;;;;;4.18;100.00;101638.41;5100924;28;20032;-74
2022/02/23 03:06:54;;;;;;;15.63;3.60;;;;;;;4.17;100.00;101639.44;5100725;28;20052;-75
2022/02/23 03:09:19;;;;;;;11.63;3.20;;;;;;;4.15;100.00;101632.47;5106721;28;20077;-74
2022/02/23 03:11:45;;;;;;;12.48;3.58;;;;;;;4.13;100.00;101629.97;5079131;28;20031;-75
2022/02/23 03:14:10;;;;;;;12.23;3.58;;;;;;;4.12;100.00;101633.78;5080782;28;20483;-74
2022/02/23 03:16:36;;;;;;;16.25;3.35;;;;;;;4.10;100.00;101630.44;5102831;28;20028;-75
2022/02/23 03:19:01;;;;;;;17.17;3.58;;;;;;;4.11;100.00;101623.84;5097956;28;20122;-74
2022/02/23 03:21:27;;;;;;;15.60;3.35;;;;;;;4.09;100.00;101623.22;5095829;28;20043;-75
2022/02/23 03:23:52;;;;;;;20.23;3.80;;;;;;;4.12;100.00;101621.94;5091810;28;20070;-74
2022/02/23 03:26:18;;;;;;;14.18;3.53;;;;;;;4.07;100.00;101614.38;5096263;28;20024;-75
2022/02/23 03:28:43;;;;;;;15.10;3.40;;;;;;;4.08;100.00;101621.56;5079968;28;20032;-75
2022/02/23 03:31:09;;;;;;;12.80;3.50;;;;;;;4.07;100.00;101619.00;5081922;28;20027;-74
2022/02/23 03:33:42;;;;;;;14.18;3.25;;;;;;;4.02;100.00;101612.28;5083158;28;20036;-74
2022/02/23 03:36:08;;;;;;;16.45;3.88;;;;;;;4.04;100.00;101601.09;5077522;28;20426;-74
2022/02/23 03:38:34;;;;;;;19.67;4.13;;;;;;;4.03;100.00;101610.38;5109912;28;20102;-74
2022/02/23 03:40:59;;;;;;;16.45;3.63;;;;;;;4.02;100.00;101611.47;5099529;28;20480;-74
2022/02/23 03:43:25;;;;;;;16.08;3.78;;;;;;;3.99;100.00;101614.66;5110126;28;20028;-75
2022/02/23 03:45:50;;;;;;;18.95;3.30;;;;;;;3.98;100.00;101613.81;5102760;28;20038;-74
2022/02/23 03:48:16;;;;;;;18.35;3.67;;;;;;;3.99;100.00;101606.41;5076634;28;20030;-74
2022/02/23 03:50:42;;;;;;;15.45;3.35;;;;;;;3.96;100.00;101607.69;5087556;28;20044;-74
2022/02/23 03:53:07;;;;;;;18.08;3.95;;;;;;;3.94;100.00;101596.06;5097689;28;20056;-74
2022/02/23 03:55:35;;;;;;;16.00;3.30;;;;;;;3.97;100.00;101600.28;5102618;28;20024;-74
2022/02/23 03:58:00;;;;;;;15.45;3.63;;;;;;;3.93;100.00;101597.16;5098026;28;20036;-74
2022/02/23 04:00:26;;;;;;;18.98;3.88;;;;;;;3.94;100.00;101598.00;5100823;28;20032;-74
2022/02/23 04:02:51;;;;;;;12.23;2.72;;;;;;;3.93;100.00;101582.56;5093702;28;20028;-74
2022/02/23 04:05:17;;;;;;;20.33;3.97;;;;;;;3.91;100.00;101592.94;5084724;28;20045;-74
2022/02/23 04:07:42;;;;;;;19.38;3.60;;;;;;;3.91;100.00;101592.94;5083545;28;20046;-75
2022/02/23 04:10:08;;;;;;;15.70;3.20;;;;;;;3.90;100.00;101596.72;5080671;28;20078;-75
2022/02/23 04:12:34;;;;;;;14.32;3.05;;;;;;;3.88;100.00;101593.38;5097679;28;20025;-74
2022/02/23 04:15:00;;;;;;;16.23;3.65;;;;;;;3.89;100.00;101584.91;5096322;28;20387;-74
2022/02/23 04:17:25;;;;;;;15.85;3.53;;;;;;;3.88;100.00;101593.38;5109489;28;20062;-74
2022/02/23 04:19:51;;;;;;;17.65;3.75;;;;;;;3.86;100.00;101590.00;5086658;28;20031;-74
2022/02/23 04:22:17;;;;;;;14.68;3.45;;;;;;;3.85;100.00;101591.94;5101597;28;20490;-74
2022/02/23 04:24:42;;;;;;;18.42;4.55;;;;;;;3.84;100.00;101592.13;5097106;28;20044;-74
2022/02/23 04:27:08;;;;;;;19.98;4.57;;;;;;;3.81;100.00;101604.41;5062597;28;20060;-74
2022/02/23 04:29:33;;;;;;;16.67;4.35;;;;;;;3.84;100.00;101603.13;5095406;28;20095;-74
2022/02/23 04:31:59;;;;;;;21.00;4.40;;;;;;;3.80;100.00;101603.56;5084404;28;20035;-74
2022/02/23 04:34:24;;;;;;;21.55;4.70;;;;;;;3.82;100.00;101600.63;5101538;28;20024;-74
2022/02/23 04:36:50;;;;;;;16.13;4.25;;;;;;;3.83;100.00;101604.19;5070225;28;20033;-74
2022/02/23 04:39:15;;;;;;;17.85;5.10;;;;;;;3.83;100.00;101598.72;5100870;28;20063;-75
2022/02/23 04:41:41;;;;;;;14.38;4.07;;;;;;;3.81;100.00;101599.75;5099364;28;20055;-74
2022/02/23 04:44:06;;;;;;;16.83;4.00;;;;;;;3.83;100.00;101595.97;5064303;28;20027;-74
2022/02/23 04:46:32;;;;;;;18.55;4.75;;;;;;;3.83;100.00;101612.44;5087578;28;20028;-75
2022/02/23 04:48:58;;;;;;;9.35;3.10;;;;;;;3.83;100.00;101609.69;5102139;28;20039;-75
2022/02/23 04:51:25;;;;;;;13.70;3.75;;;;;;;3.85;100.00;101607.56;5081404;28;20028;-74
2022/02/23 04:53:52;;;;;;;12.75;3.97;;;;;;;3.86;100.00;101612.84;5091734;28;20032;-74
2022/02/23 04:56:17;;;;;;;14.48;3.60;;;;;;;3.88;100.00;101616.22;5099574;28;20092;-74
2022/02/23 04:58:43;;;;;;;13.52;3.05;;;;;;;3.90;100.00;101608.59;5099148;28;20039;-74
2022/02/23 05:01:08;;;;;;;14.10;3.35;;;;;;;3.86;100.00;101617.50;5080526;28;20036;-74
2022/02/23 05:03:34;;;;;;;10.48;3.20;;;;;;;3.90;100.00;101607.72;5098059;28;20396;-74
2022/02/23 05:06:00;;;;;;;15.68;3.58;;;;;;;3.93;100.00;101615.56;5064514;28;20380;-75
2022/02/23 05:08:26;;;;;;;16.00;3.30;;;;;;;3.95;100.00;101616.16;5104276;28;20048;-74
2022/02/23 05:10:51;;;;;;;11.02;2.95;;;;;;;3.92;100.00;101611.94;5080527;28;20028;-75
2022/02/23 05:13:17;;;;;;;12.68;2.83;;;;;;;3.96;100.00;101612.34;5082936;28;20031;-74
2022/02/23 05:15:42;;;;;;;12.25;3.13;;;;;;;4.00;100.00;101616.31;5094064;28;20040;-75
2022/02/23 05:18:08;;;;;;;9.02;2.58;;;;;;;4.02;100.00;101622.44;5121979;27;20024;-75
2022/02/23 05:20:34;;;;;;;9.27;2.92;;;;;;;4.02;100.00;101627.94;5082734;28;20063;-74
2022/02/23 05:22:59;;;;;;;13.38;2.85;;;;;;;4.03;100.00;101618.63;5094461;28;20074;-75
2022/02/23 05:25:25;;;;;;;11.73;2.67;;;;;;;4.07;100.00;101624.50;5078672;28;20054;-75
2022/02/23 05:27:51;;;;;;;11.63;2.70;;;;;;;4.09;100.00;101628.72;5096299;28;20027;-74
2022/02/23 05:30:16;;;;;;;13.30;2.70;;;;;;;4.11;100.00;101629.34;5082572;28;20032;-74
2022/02/23 05:32:42;;;;;;;13.88;2.85;;;;;;;4.14;100.00;101630.81;5110548;28;20478;-74
2022/02/23 05:35:07;;;;;;;9.23;2.70;;;;;;;4.16;100.00;101624.03;5111550;27;20028;-74
2022/02/23 05:37:33;;;;;;;10.30;2.30;;;;;;;4.17;100.00;101628.44;5089981;28;20028;-74
2022/02/23 05:39:58;;;;;;;10.30;2.72;;;;;;;4.20;100.00;101630.75;5087362;28;20039;-74
2022/02/23 05:42:24;;;;;;;10.98;2.53;;;;;;;4.23;100.00;101621.22;5086055;28;20024;-74
2022/02/23 05:44:49;;;;;;;9.63;2.88;;;;;;;4.28;100.00;101620.53;5099610;28;20019;-74
2022/02/23 05:47:15;;;;;;;7.20;2.22;;;;;;;4.27;100.00;101630.72;5093158;28;20020;-74
2022/02/23 05:49:40;;;;;;;11.57;2.30;;;;;;;4.29;100.00;101635.97;5107180;28;20107;-74
2022/02/23 05:52:06;;;;;;;14.07;2.72;;;;;;;4.31;100.00;101648.44;5076413;28;20097;-74
2022/02/23 05:54:32;;;;;;;8.63;2.10;;;;;;;4.33;100.00;101640.81;5062955;28;20050;-74
2022/02/23 05:56:58;;;;;;;10.65;2.30;;;;;;;4.34;100.00;101638.88;5072932;28;20029;-74
2022/02/23 05:59:25;;;;;;;8.57;2.38;;;;;;;4.37;100.00;101635.69;5081774;28;20028;-74
2022/02/23 06:01:51;;;;;;;9.27;3.15;;;;;;;4.38;100.00;101637.38;5084195;28;20039;-74
2022/02/23 06:04:16;;;;;;;9.95;2.40;;;;;;;4.40;100.00;101643.47;5089526;28;20036;-74
2022/02/23 06:06:42;;;;;;;8.15;2.47;;;;;;;4.42;100.00;101647.69;5086549;28;20459;-74
2022/02/23 06:09:08;;;;;;;11.82;2.40;;;;;;;4.44;100.00;101645.56;5083533;28;20027;-74
2022/02/23 06:11:36;;;;;;;12.88;2.53;;;;;;;4.48;100.00;101648.69;5098177;28;20031;-74
2022/02/23 06:14:02;;;;;;;9.65;2.72;;;;;;;4.49;100.00;101642.16;5078913;28;20031;-74
2022/02/23 06:16:28;;;;;;;8.48;2.17;;;;;;;4.50;100.00;101646.56;5083023;28;20028;-75
2022/02/23 06:18:54;;;;;;;7.35;1.98;;;;;;;4.53;100.00;101646.13;5064895;28;20036;-74
2022/02/23 06:21:20;;;;;;;8.80;1.98;;;;;;;4.55;100.00;101652.25;5058416;28;20493;-74
2022/02/23 06:23:46;;;;;;;8.30;2.08;;;;;;;4.56;100.00;101642.91;5093553;28;20103;-74
2022/02/23 06:26:11;;;;;;;11.50;2.58;;;;;;;4.59;100.00;101644.38;5081240;28;20020;-74
2022/02/23 06:28:37;;;;;;;9.32;2.30;;;;;;;4.55;100.00;101643.16;5081746;28;20035;-74
2022/02/23 06:31:02;;;;;;;11.32;2.60;;;;;;;4.60;100.00;101651.56;5095817;28;20031;-74
2022/02/23 06:33:28;;;;;;;9.60;2.45;;;;;;;4.60;100.00;101652.41;5105675;28;20060;-75
2022/02/23 06:35:54;;;;;;;7.95;2.45;;;;;;;4.63;100.00;101646.44;5105551;28;20070;-75
2022/02/23 06:38:20;;;;;;;8.48;2.22;;;;;;;4.63;100.00;101649.19;5108578;28;20035;-74
2022/02/23 06:40:46;;;;;;;10.98;2.60;;;;;;;4.61;100.00;101648.56;5060380;28;20032;-74
2022/02/23 06:43:19;;;;;;;10.98;2.70;;;;;;;4.62;100.00;101650.25;5061871;28;20402;-75
2022/02/23 06:45:45;;;;;;;7.35;2.15;;;;;;;4.60;100.00;101646.91;5060773;28;20440;-75
2022/02/23 06:48:11;;;;;;;8.65;2.42;;;;;;;4.63;100.00;101651.94;5075802;28;20028;-75
2022/02/23 06:50:36;;;;;;;6.55;2.38;;;;;;;4.63;100.00;101656.63;5077257;28;20040;-75
2022/02/23 06:53:02;;;;;;;9.93;2.53;;;;;;;4.63;100.00;101654.72;5094372;28;20039;-74
2022/02/23 06:55:27;;;;;;;15.00;3.25;;;;;;;4.64;100.00;101659.13;5060913;28;20036;-74
2022/02/23 06:57:53;;;;;;;13.38;3.42;;;;;;;4.63;100.00;101657.47;5110592;28;20084;-75
2022/02/23 07:00:19;;;;;;;13.63;3.03;;;;;;;4.68;100.00;101660.38;5088619;28;20398;-75
2022/02/23 07:02:45;;;;;;;10.98;3.15;;;;;;;4.67;100.00;101655.91;5077169;28;20024;-74
2022/02/23 07:05:10;;;;;;;13.77;3.80;;;;;;;4.68;100.00;101652.13;5097649;28;20031;-74
2022/02/23 07:07:36;;;;;;;8.90;2.75;;;;;;;4.70;100.00;101660.13;5090923;28;20488;-74
2022/02/23 07:10:07;;;;;;;12.57;3.10;;;;;;;4.66;100.00;101661.66;5076463;28;20051;-74
2022/02/23 07:12:34;;;;;;;15.35;3.28;;;;;;;4.65;100.00;101655.31;5093989;28;20437;-74
2022/02/23 07:14:59;;;;;;;12.52;3.67;;;;;;;4.64;100.00;101650.88;5080527;28;20087;-75
2022/02/23 07:17:26;;;;;;;14.15;3.15;;;;;;;4.68;100.00;101654.00;5086094;28;20384;-74
2022/02/23 07:19:51;;;;;;;11.88;3.72;;;;;;;4.66;100.00;101648.75;5096332;28;20035;-75
2022/02/23 07:22:17;;;;;;;14.18;3.28;;;;;;;4.69;100.00;101655.72;5101721;28;20076;-74
2022/02/23 07:24:42;;;;;;;11.30;3.22;;;;;;;4.69;100.00;101661.22;5098659;28;20480;-74
2022/02/23 07:27:12;;;;;;;12.65;3.47;;;;;;;4.68;100.00;101660.38;5093253;28;20053;-74
2022/02/23 07:29:37;;;;;;;13.30;2.90;;;;;;;4.68;100.00;101660.38;5098093;28;20090;-73
2022/02/23 07:32:03;;;;;;;13.07;3.10;;;;;;;4.74;100.00;101663.28;5097558;28;20027;-74
2022/02/23 07:34:32;;;;;;;11.10;3.40;;;;;;;4.74;100.00;101660.53;5095534;28;20094;-80
2022/02/23 07:36:57;;;;;;;12.80;3.25;;;;;;;4.75;100.00;101662.22;5045987;28;20028;-71
2022/02/23 07:39:23;;;;;;;5.63;2.03;;;;;;;4.76;100.00;101655.63;5077401;28;20024;-73
2022/02/23 07:41:48;;;;;;;11.70;2.67;;;;;;;4.77;100.00;101651.81;5080884;28;20040;-72
2022/02/23 07:44:14;;;;;;;11.85;2.90;;;;;;;4.77;100.00;101647.16;5093774;28;20063;-72
2022/02/23 07:46:40;;;;;;;12.25;2.85;;;;;;;4.80;100.00;101643.13;5057631;28;20040;-72
2022/02/23 07:49:05;;;;;;;14.82;3.25;;;;;;;4.83;100.00;101642.66;5071109;28;20032;-72
2022/02/23 07:51:31;;;;;;;16.60;3.22;;;;;;;4.84;100.00;101647.06;5076339;28;20034;-73
2022/02/23 07:53:58;;;;;;;13.57;3.40;;;;;;;4.86;100.00;101640.28;5115258;28;20043;-72
2022/02/23 07:56:23;;;;;;;10.23;2.70;;;;;;;4.89;100.00;101645.31;5086897;28;20043;-72
2022/02/23 07:58:50;;;;;;;9.95;2.58;;;;;;;4.92;100.00;101638.50;5097869;28;20028;-72
2022/02/23 08:01:35;;;;;;;9.75;3.00;;;;;;;4.95;100.00;101635.31;5087819;28;20372;-72
2022/02/23 08:04:01;;;;;;;9.00;3.00;;;;;;;4.98;100.00;101637.59;5090558;28;20036;-73
2022/02/23 08:06:27;;;;;;;10.55;2.83;;;;;;;5.02;100.00;101633.31;5098197;28;20572;-72
2022/02/23 08:08:54;;;;;;;14.20;3.15;;;;;;;5.04;100.00;101628.44;5100020;28;20027;-72
2022/02/23 08:11:19;;;;;;;15.40;3.25;;;;;;;5.11;100.00;101633.84;5129718;27;20024;-73
2022/02/23 08:13:45;;;;;;;18.75;4.45;;;;;;;5.14;100.00;101636.97;5108536;28;20395;-72
2022/02/23 08:21:42;;;;;;;15.73;2.97;;;;;;;5.29;100.00;101633.84;5112222;28;20058;-72
2022/02/23 08:24:07;;;;;;;16.20;3.30;;;;;;;5.34;100.00;101627.63;5100977;28;20028;-72
2022/02/23 08:26:33;;;;;;;15.80;3.67;;;;;;;5.39;100.00;101627.78;5098556;28;20122;-72
2022/02/23 08:28:59;;;;;;;20.23;3.22;;;;;;;5.43;100.00;101630.91;5114567;28;20028;-72
2022/02/23 08:31:25;;;;;;;15.30;3.45;;;;;;;5.48;100.00;101642.91;5102019;28;20395;-73
2022/02/23 08:33:50;;;;;;;23.08;4.22;;;;;;;5.52;100.00;101635.88;5098494;28;20024;-73
2022/02/23 08:36:16;;;;;;;22.48;3.63;;;;;;;5.56;100.00;101633.47;5094899;28;20019;-73
2022/02/23 08:38:42;;;;;;;20.42;3.50;;;;;;;5.60;100.00;101631.97;5088143;28;20720;-72
2022/02/23 08:41:08;;;;;;;21.48;3.78;;;;;;;5.66;100.00;101635.69;5085109;28;20054;-72
2022/02/23 08:43:34;;;;;;;21.67;4.13;;;;;;;5.71;100.00;101619.25;5102690;28;20065;-73
2022/02/23 08:46:00;;;;;;;16.63;3.20;;;;;;;5.76;100.00;101614.72;5116333;28;20718;-72
2022/02/23 08:48:27;;;;;;;18.88;3.40;;;;;;;5.81;100.00;101617.63;5082926;28;20028;-72
2022/02/23 08:50:53;;;;;;;14.48;3.80;;;;;;;5.88;100.00;101627.72;5103036;28;20032;-72
2022/02/23 08:53:18;;;;;;;16.90;3.33;;;;;;;5.91;100.00;101625.34;5091360;28;20042;-73
2022/02/23 08:55:44;;;;;;;19.60;4.72;;;;;;;5.96;100.00;101622.75;5099672;28;20123;-72
2022/02/23 08:58:13;;;;;;;20.65;4.78;;;;;;;6.03;100.00;101625.41;5082296;28;20028;-73
2022/02/23 09:00:39;;;;;;;22.58;4.20;;;;;;;6.08;100.00;101633.81;5114152;28;20027;-73
2022/02/23 09:03:05;;;;;;;23.55;4.60;;;;;;;6.15;100.00;101633.69;5089983;28;20039;-72
2022/02/23 09:05:30;;;;;;;20.30;4.65;;;;;;;6.19;100.00;101624.72;5081526;28;20143;-72
2022/02/23 09:07:56;;;;;;;27.05;4.45;;;;;;;6.25;100.00;101615.47;5077236;28;20081;-73
2022/02/23 09:10:21;;;;;;;25.38;4.55;;;;;;;6.31;100.00;101624.72;5083753;28;20024;-73
2022/02/23 09:12:47;;;;;;;18.90;4.55;;;;;;;6.35;100.00;101619.53;5097512;28;20059;-72
2022/02/23 09:15:13;;;;;;;23.02;4.70;;;;;;;6.42;100.00;101621.13;5111677;28;20115;-72
2022/02/23 09:17:39;;;;;;;20.15;4.95;;;;;;;6.48;100.00;101616.56;5077397;28;20120;-72
2022/02/23 09:20:05;;;;;;;19.40;4.80;;;;;;;6.55;100.00;101613.69;5112532;28;20035;-72
2022/02/23 09:22:31;;;;;;;19.13;4.97;;;;;;;6.60;100.00;101611.91;5096908;28;20024;-73
2022/02/23 09:24:57;;;;;;;22.50;5.82;;;;;;;6.69;100.00;101609.59;5084215;28;20411;-72
2022/02/23 09:27:22;;;;;;;31.80;6.35;;;;;;;6.75;100.00;101605.88;5105729;28;20499;-72
2022/02/23 09:29:48;;;;;;;36.22;6.53;;;;;;;6.83;100.00;101616.56;5100690;28;20048;-72
2022/02/23 09:32:15;;;;;;;31.88;6.15;;;;;;;6.90;100.00;101608.97;5096248;28;20031;-73
2022/02/23 09:34:41;;;;;;;35.58;6.57;;;;;;;6.97;100.00;101608.00;5073204;28;20032;-73
2022/02/23 09:37:07;;;;;;;31.52;6.47;;;;;;;7.03;100.00;101613.38;5085635;28;20040;-73
2022/02/23 09:39:32;;;;;;;37.50;6.28;;;;;;;7.11;100.00;101610.25;5103983;28;20028;-73
2022/02/23 09:41:58;;;;;;;28.58;5.82;;;;;;;7.18;100.00;101601.81;5102752;28;20028;-72
2022/02/23 09:44:27;;;;;;;33.92;6.63;;;;;;;7.26;100.00;101598.66;5062694;28;20058;-73
2022/02/23 09:46:52;;;;;;;30.45;6.65;;;;;;;7.34;100.00;101595.50;5096033;28;20043;-73
2022/02/23 09:49:18;;;;;;;30.88;5.95;;;;;;;7.43;100.00;101592.34;5076000;28;20028;-73
2022/02/23 09:51:46;;;;;;;31.15;6.38;;;;;;;7.52;100.00;101588.09;5096943;28;20040;-72
2022/02/23 09:54:12;;;;;;;28.65;5.63;;;;;;;7.60;100.00;101587.72;5096410;28;20040;-72
2022/02/23 09:56:39;;;;;;;31.77;6.68;;;;;;;7.64;100.00;101575.09;5077322;28;20062;-73
2022/02/23 09:59:05;;;;;;;33.67;6.47;;;;;;;7.71;100.00;101578.50;5072371;28;20034;-73
2022/02/23 10:01:33;;;;;;;34.38;6.25;;;;;;;7.78;100.00;101581.13;5081958;28;20028;-72
2022/02/23 10:03:59;;;;;;;29.95;6.30;;;;;;;7.83;100.00;101576.53;5078138;28;20035;-72
2022/02/23 10:06:33;;;;;;;38.05;5.95;;;;;;;7.93;100.00;101580.56;5088430;28;20036;-73
2022/02/23 10:09:08;;;;;;;38.35;6.10;;;;;;;8.03;100.00;101573.28;5100996;28;20035;-72
2022/02/23 10:11:35;;;;;;;29.40;6.20;;;;;;;8.12;100.00;101576.47;5097080;28;20101;-73
2022/02/23 10:14:02;;;;;;;27.63;5.30;;;;;;;8.21;100.00;101572.16;5110342;27;20418;-73
2022/02/23 10:16:44;;;;;;;27.83;5.47;;;;;;;8.28;100.00;101567.31;5105007;28;20027;-73
2022/02/23 10:19:13;;;;;;;28.20;5.28;;;;;;;8.38;100.00;101566.63;5108314;27;20027;-73
2022/02/23 10:21:55;;;;;;;32.30;4.60;;;;;;;8.47;100.00;101559.59;5076664;28;20454;-72
2022/02/23 10:24:34;;;;;;;24.88;4.63;;;;;;;8.51;100.00;101554.38;5077499;28;20380;-72
2022/02/23 10:27:08;;;;;;;31.02;5.15;;;;;;;8.57;100.00;101550.59;5072361;28;20028;-73
2022/02/23 10:29:57;;;;;;;27.20;4.60;;;;;;;8.61;100.00;101551.78;5095744;28;20066;-72
2022/02/23 10:32:24;;;;;;;30.08;5.32;;;;;;;8.67;100.00;101553.50;5080479;28;20044;-73
2022/02/23 10:34:51;;;;;;;29.60;6.57;;;;;;;8.72;100.00;101550.00;5093636;28;20448;-72
2022/02/23 10:37:18;;;;;;;23.77;5.53;;;;;;;8.79;100.00;101549.78;5095488;28;20085;-73
2022/02/23 10:39:45;;;;;;;31.35;5.80;;;;;;;8.82;100.00;101549.28;5095042;28;20029;-72
2022/02/23 10:42:15;;;;;;;30.13;6.22;;;;;;;8.87;100.00;101544.63;5104851;28;20120;-73
2022/02/23 10:44:45;;;;;;;25.95;5.75;;;;;;;8.90;100.00;101543.28;5076469;28;20067;-73
2022/02/23 10:47:32;;;;;;;33.88;7.40;;;;;;;8.97;100.00;101549.47;5094830;28;20073;-72
2022/02/23 10:49:59;;;;;;;31.63;6.53;;;;;;;9.04;100.00;101533.47;5092933;28;20032;-72
2022/02/23 10:52:25;;;;;;;31.98;6.85;;;;;;;9.09;100.00;101532.72;5097140;28;20047;-72
2022/02/23 10:54:50;;;;;;;28.83;6.70;;;;;;;9.14;100.00;101525.28;5044603;28;20027;-72
2022/02/23 10:57:17;;;;;;;34.42;7.43;;;;;;;9.23;100.00;101524.84;5090901;28;20035;-72
2022/02/23 10:59:42;;;;;;;27.70;6.28;;;;;;;9.30;100.00;101520.72;5078144;28;20152;-72
2022/02/23 11:02:08;;;;;;;23.52;5.75;;;;;;;9.40;100.00;101508.94;5081631;28;20032;-72
2022/02/23 11:04:33;;;;;;;26.23;5.35;;;;;;;9.49;100.00;101503.75;5090442;28;20021;-72
2022/02/23 11:06:59;;;;;;;22.90;5.22;;;;;;;9.56;100.00;101502.44;5085882;28;20511;-72
2022/02/23 11:09:24;;;;;;;22.27;3.85;;;;;;;9.63;98.50;101496.66;5071322;28;20035;-72
2022/02/23 11:11:50;;;;;;;22.90;4.20;;;;;;;9.75;99.52;101488.16;5076872;28;20498;-73
2022/02/23 11:14:16;;;;;;;19.88;4.32;;;;;;;9.82;99.17;101494.34;5078460;28;20056;-72
2022/02/23 11:16:41;;;;;;;24.88;4.72;;;;;;;9.89;97.89;101494.09;5077168;28;20032;-73
2022/02/23 11:19:07;;;;;;;19.40;3.50;;;;;;;9.97;98.74;101490.81;5082321;28;20033;-73